Millenium Air

Millenium Air Since 1998



 METAR AND TAF INFORMATION
METAR FOR LOWG
ADDS - METARS form results

(1926 UTC 09 April 2020)
Data provider http://aviationweather.gov/metar/data/
 
METAR text: LOWG 091920Z AUTO 36006KT 9999 NCD 14/M00 Q1022
Conditions at: LOWG (GRAZ (MIL/CIV) , AT) observed 1920 UTC 09 April 2020
Temperature: 14.0°C (57°F)
Dewpoint: 0.0°C (32°F) [RH = 38%]
Pressure (altimeter): 30.18 inches Hg (1022.0 mb)
Winds: from the N (360 degrees) at 7 MPH (6 knots; 3.1 m/s)
Visibility: 6 or more miles (10+ km)
Ceiling: at least 12,000 feet AGL
Clouds: sky clear below 12,000 feet AGL
Weather: no significant weather observed at this time

METAR text: LOWG 091850Z AUTO VRB02KT 9999 NCD 15/M02 Q1021
Conditions at: LOWG (GRAZ (MIL/CIV) , AT) observed 1850 UTC 09 April 2020
Temperature: 15.0°C (59°F)
Dewpoint: -2.0°C (28°F) [RH = 31%]
Pressure (altimeter): 30.15 inches Hg (1021.0 mb)
Winds: variable direction winds at 2 MPH (2 knots; 1.0 m/s)
Visibility: 6 or more miles (10+ km)
Ceiling: at least 12,000 feet AGL
Clouds: sky clear below 12,000 feet AGL
Weather: no significant weather observed at this time

Forecast for: LOWG (GRAZ (MIL/CIV) , AT)
Text: TAF LOWG 091715Z 0918/1018 VRB04KT CAVOK TX22/1014Z TN05/1004Z
Forecast period: 1800 UTC 09 April 2020 to 1800 UTC 10 April 2020
Forecast type: FROM: standard forecast or significant change
Winds: variable direction winds at 5 MPH (4 knots; 2.1 m/s)
Visibility: 6 or more miles 10+ km)
Ceiling: unknown
Clouds: missing
Weather: no significant weather forecast for this period

 AIRPORT MAP

 RUNWAY INFORMATION
Runway 17C Runway length 9842 ft Runway width 148 ft
Runway elevation 1115 ft Runway displaced threshold 853 ft Runway heading 169
Runway 35C Runway length 9842 ft Runway width 148 ft
Runway elevation 1089 ft Runway displaced threshold 0 ft Runway heading 349
Runway 17L Runway length 2100 ft Runway width 98 ft
Runway elevation 1112 ft Runway displaced threshold 0 ft Runway heading 169
Runway 35R Runway length 2100 ft Runway width 98 ft
Runway elevation 1102 ft Runway displaced threshold 0 ft Runway heading 349
Runway 17R Runway length 2493 ft Runway width 82 ft
Runway elevation 1112 ft Runway displaced threshold 492 ft Runway heading 169
Runway 35L Runway length 2493 ft Runway width 82 ft
Runway elevation 1102 ft Runway displaced threshold 492 ft Runway heading 349

 AIRPORT FREQUENCIES
Type APP Name APP Frequency 119.3 MHZ
Type ATIS Name ATIS Frequency 126.125 MHZ
Type TWR Name TWR Frequency 118.2 MHZ

 AIRPORT NEAR NAVIGATION AIDS